Time,TemperatureF,DewpointF,PressureIn,WindDirection,WindDirectionDegrees,WindSpeedMPH,WindSpeedGustMPH,Humidity,HourlyPrecipIn,Conditions,Clouds,dailyrainin,SolarRadiationWatts/m^2,SoftwareType,DateUTC
2013-06-23 00:00:00,82.4,75.0,30.10,ESE,119,4.0,-999.0,78,-99.99,,,0.00,0,weatherlink.com 1.10,2013-06-23 04:00:00,
2013-06-23 00:15:00,82.3,75.0,30.09,SSE,166,0.0,-999.0,79,-99.99,,,0.00,0,weatherlink.com 1.10,2013-06-23 04:15:00,
2013-06-23 00:30:00,82.1,75.0,30.09,SE,138,0.0,-999.0,79,-99.99,,,0.00,0,weatherlink.com 1.10,2013-06-23 04:30:00,
2013-06-23 00:45:00,77.1,71.0,30.10,NE,56,0.0,-999.0,81,-99.99,,,0.00,0,weatherlink.com 1.10,2013-06-23 04:45:00,
2013-06-23 01:00:00,77.2,73.0,30.09,East,86,0.0,-999.0,87,-99.99,,,0.00,0,weatherlink.com 1.10,2013-06-23 05:00:00,
2013-06-23 01:15:00,77.4,74.0,30.08,East,86,0.0,-999.0,89,-99.99,,,0.00,0,weatherlink.com 1.10,2013-06-23 05:15:00,
2013-06-23 01:30:00,76.8,74.0,30.08,East,87,0.0,-999.0,90,-99.99,,,0.00,0,weatherlink.com 1.10,2013-06-23 05:30:00,
2013-06-23 01:45:00,76.9,74.0,30.07,East,90,0.0,-999.0,91,-99.99,,,0.00,0,weatherlink.com 1.10,2013-06-23 05:45:00,
2013-06-23 02:00:00,77.0,74.0,30.06,ESE,109,0.0,-999.0,91,-99.99,,,0.00,0,weatherlink.com 1.10,2013-06-23 06:00:00,
2013-06-23 02:15:00,77.3,75.0,30.05,ENE,69,0.0,-999.0,92,-99.99,,,0.00,0,weatherlink.com 1.10,2013-06-23 06:15:00,
2013-06-23 02:30:00,77.4,75.0,30.05,ENE,74,0.0,-999.0,91,-99.99,,,0.00,0,weatherlink.com 1.10,2013-06-23 06:30:00,
2013-06-23 02:45:00,77.6,75.0,30.05,ENE,78,0.0,-999.0,91,-99.99,,,0.00,0,weatherlink.com 1.10,2013-06-23 06:45:00,
2013-06-23 03:00:00,78.0,75.0,30.05,East,92,0.0,-999.0,91,-99.99,,,0.00,0,weatherlink.com 1.10,2013-06-23 07:00:00,
2013-06-23 03:15:00,78.4,75.0,30.05,ESE,106,0.0,-999.0,90,-99.99,,,0.00,0,weatherlink.com 1.10,2013-06-23 07:15:00,
2013-06-23 03:30:00,78.7,75.0,30.05,ESE,103,0.0,-999.0,89,-99.99,,,0.00,0,weatherlink.com 1.10,2013-06-23 07:30:00,
2013-06-23 03:45:00,78.9,75.0,30.05,ESE,109,0.0,-999.0,88,-99.99,,,0.00,0,weatherlink.com 1.10,2013-06-23 07:45:00,
2013-06-23 04:00:00,78.9,75.0,30.05,SE,134,0.0,-999.0,87,-99.99,,,0.00,0,weatherlink.com 1.10,2013-06-23 08:00:00,
2013-06-23 04:15:00,78.9,74.0,30.05,SE,134,0.0,-999.0,86,-99.99,,,0.00,0,weatherlink.com 1.10,2013-06-23 08:15:00,
2013-06-23 04:30:00,79.3,76.0,30.05,ESE,103,2.0,-999.0,88,-99.99,,,0.00,0,weatherlink.com 1.10,2013-06-23 08:30:00,
2013-06-23 04:45:00,79.2,75.0,30.05,ESE,108,0.0,-999.0,87,-99.99,,,0.00,0,weatherlink.com 1.10,2013-06-23 08:45:00,
2013-06-23 05:00:00,79.1,75.0,30.05,ESE,103,0.0,-999.0,87,-99.99,,,0.00,0,weatherlink.com 1.10,2013-06-23 09:00:00,
2013-06-23 05:15:00,79.2,75.0,30.04,East,101,0.0,-999.0,87,-99.99,,,0.00,0,weatherlink.com 1.10,2013-06-23 09:15:00,
2013-06-23 05:30:00,79.3,75.0,30.04,East,101,0.0,-999.0,87,-99.99,,,0.00,0,weatherlink.com 1.10,2013-06-23 09:30:00,
2013-06-23 05:45:00,79.4,75.0,30.05,ESE,105,0.0,-999.0,87,-99.99,,,0.00,0,weatherlink.com 1.10,2013-06-23 09:45:00,
2013-06-23 06:00:00,79.0,74.0,30.05,East,101,2.0,-999.0,85,-99.99,,,0.00,0,weatherlink.com 1.10,2013-06-23 10:00:00,
2013-06-23 06:15:00,78.0,74.0,30.06,East,94,0.0,-999.0,86,-99.99,,,0.00,0,weatherlink.com 1.10,2013-06-23 10:15:00,
2013-06-23 06:30:00,77.4,74.0,30.06,East,101,0.0,-999.0,88,-99.99,,,0.00,9,weatherlink.com 1.10,2013-06-23 10:30:00,
2013-06-23 06:45:00,76.7,73.0,30.06,ESE,105,0.0,-999.0,89,-99.99,,,0.00,18,weatherlink.com 1.10,2013-06-23 10:45:00,
2013-06-23 07:00:00,76.2,73.0,30.07,ESE,105,0.0,-999.0,90,-99.99,,,0.00,21,weatherlink.com 1.10,2013-06-23 11:00:00,
2013-06-23 07:16:00,76.1,73.0,30.07,ESE,105,0.0,-999.0,90,-99.99,,,0.00,84,weatherlink.com 1.10,2013-06-23 11:16:00,
2013-06-23 07:32:00,76.4,73.0,30.07,East,92,2.0,-999.0,90,-99.99,,,0.00,176,weatherlink.com 1.10,2013-06-23 11:32:00,
2013-06-23 07:46:00,77.3,74.0,30.07,East,94,0.0,-999.0,90,-99.99,,,0.00,338,weatherlink.com 1.10,2013-06-23 11:46:00,
2013-06-23 08:01:00,78.7,76.0,30.08,ESE,105,0.0,-999.0,90,-99.99,,,0.00,329,weatherlink.com 1.10,2013-06-23 12:01:00,
2013-06-23 08:16:00,80.5,77.0,30.08,SE,132,1.0,-999.0,89,-99.99,,,0.00,399,weatherlink.com 1.10,2013-06-23 12:16:00,
2013-06-23 08:31:00,81.9,76.0,30.09,East,96,0.0,-999.0,83,-99.99,,,0.00,392,weatherlink.com 1.10,2013-06-23 12:31:00,
2013-06-23 08:46:00,83.4,76.0,30.09,ESE,111,0.0,-999.0,79,-99.99,,,0.00,397,weatherlink.com 1.10,2013-06-23 12:46:00,
2013-06-23 09:01:00,84.3,76.0,30.09,East,87,0.0,-999.0,76,-99.99,,,0.00,475,weatherlink.com 1.10,2013-06-23 13:01:00,
2013-06-23 09:16:00,84.8,75.0,30.10,SE,136,2.0,-999.0,73,-99.99,,,0.00,520,weatherlink.com 1.10,2013-06-23 13:16:00,
2013-06-23 09:31:00,84.5,76.0,30.10,ENE,71,4.0,-999.0,75,-99.99,,,0.00,510,weatherlink.com 1.10,2013-06-23 13:31:00,
2013-06-23 09:46:00,85.0,75.0,30.10,SE,132,6.0,-999.0,72,-99.99,,,0.00,475,weatherlink.com 1.10,2013-06-23 13:46:00,
2013-06-23 10:16:00,85.6,75.0,30.10,East,84,0.0,-999.0,71,-99.99,,,0.00,657,weatherlink.com 1.10,2013-06-23 14:16:00,
2013-06-23 10:31:00,86.2,76.0,30.10,East,94,4.0,-999.0,71,-99.99,,,0.00,759,weatherlink.com 1.10,2013-06-23 14:31:00,
2013-06-23 10:46:00,84.8,76.0,30.10,East,89,8.0,-999.0,74,-99.99,,,0.00,230,weatherlink.com 1.10,2013-06-23 14:46:00,
2013-06-23 11:01:00,83.7,72.0,30.11,East,84,4.0,-999.0,67,-99.99,,,0.00,947,weatherlink.com 1.10,2013-06-23 15:01:00,
2013-06-23 11:16:00,86.3,75.0,30.11,ENE,78,5.0,-999.0,68,-99.99,,,0.00,768,weatherlink.com 1.10,2013-06-23 15:16:00,
2013-06-23 11:31:00,86.8,77.0,30.11,ESE,112,0.0,-999.0,73,-99.99,,,0.00,837,weatherlink.com 1.10,2013-06-23 15:31:00,
2013-06-23 11:46:00,86.5,76.0,30.10,ESE,107,4.0,-999.0,71,-99.99,,,0.00,343,weatherlink.com 1.10,2013-06-23 15:46:00,
2013-06-23 12:01:00,87.0,76.0,30.11,South,188,0.0,-999.0,70,-99.99,,,0.00,944,weatherlink.com 1.10,2013-06-23 16:01:00,
2013-06-23 12:16:00,87.9,77.0,30.11,East,80,6.0,-999.0,69,-99.99,,,0.00,937,weatherlink.com 1.10,2013-06-23 16:16:00,
2013-06-23 12:31:00,88.0,78.0,30.11,ENE,76,3.0,-999.0,72,-99.99,,,0.00,615,weatherlink.com 1.10,2013-06-23 16:31:00,
2013-06-23 12:46:00,85.9,76.0,30.11,ENE,58,0.0,-999.0,73,-99.99,,,0.00,269,weatherlink.com 1.10,2013-06-23 16:46:00,
2013-06-23 13:01:00,85.7,76.0,30.11,East,99,0.0,-999.0,72,-99.99,,,0.00,531,weatherlink.com 1.10,2013-06-23 17:01:00,
2013-06-23 13:16:00,87.4,76.0,30.11,ENE,76,2.0,-999.0,68,-99.99,,,0.00,877,weatherlink.com 1.10,2013-06-23 17:16:00,
2013-06-23 13:31:00,88.1,77.0,30.11,ESE,111,7.0,-999.0,69,-99.99,,,0.00,932,weatherlink.com 1.10,2013-06-23 17:31:00,
2013-06-23 13:46:00,89.2,77.0,30.11,East,80,8.0,-999.0,67,-99.99,,,0.00,953,weatherlink.com 1.10,2013-06-23 17:46:00,
2013-06-23 14:01:00,88.1,77.0,30.11,NE,56,1.0,-999.0,70,-99.99,,,0.00,911,weatherlink.com 1.10,2013-06-23 18:01:00,
2013-06-23 14:16:00,88.9,76.0,30.09,East,85,4.0,-999.0,66,-99.99,,,0.00,930,weatherlink.com 1.10,2013-06-23 18:16:00,
2013-06-23 14:31:00,89.1,76.0,30.09,East,100,2.0,-999.0,66,-99.99,,,0.00,719,weatherlink.com 1.10,2013-06-23 18:31:00,
2013-06-23 14:46:00,87.8,76.0,30.08,SE,138,5.0,-999.0,68,-99.99,,,0.00,900,weatherlink.com 1.10,2013-06-23 18:46:00,
2013-06-23 15:02:00,88.6,76.0,30.08,East,94,4.0,-999.0,67,-99.99,,,0.00,861,weatherlink.com 1.10,2013-06-23 19:02:00,
2013-06-23 15:17:00,89.1,75.0,30.08,SSE,152,0.0,-999.0,64,-99.99,,,0.00,846,weatherlink.com 1.10,2013-06-23 19:17:00,
2013-06-23 15:32:00,89.4,77.0,30.08,ENE,65,1.0,-999.0,66,-99.99,,,0.00,911,weatherlink.com 1.10,2013-06-23 19:32:00,
2013-06-23 15:47:00,89.0,76.0,30.09,East,90,7.0,-999.0,65,-99.99,,,0.00,186,weatherlink.com 1.10,2013-06-23 19:47:00,
2013-06-23 16:02:00,88.7,75.0,30.07,East,98,6.0,-999.0,65,-99.99,,,0.00,751,weatherlink.com 1.10,2013-06-23 20:02:00,
2013-06-23 16:17:00,88.0,75.0,30.07,SE,124,0.0,-999.0,66,-99.99,,,0.00,726,weatherlink.com 1.10,2013-06-23 20:17:00,
2013-06-23 16:32:00,88.9,75.0,30.07,ESE,123,4.0,-999.0,64,-99.99,,,0.00,668,weatherlink.com 1.10,2013-06-23 20:32:00,
2013-06-23 16:47:00,87.8,76.0,30.07,ENE,77,3.0,-999.0,68,-99.99,,,0.00,661,weatherlink.com 1.10,2013-06-23 20:47:00,
2013-06-23 17:02:00,87.9,75.0,30.07,SE,136,2.0,-999.0,66,-99.99,,,0.00,682,weatherlink.com 1.10,2013-06-23 21:02:00,
2013-06-23 17:17:00,87.1,75.0,30.07,ENE,69,4.0,-999.0,67,-99.99,,,0.00,204,weatherlink.com 1.10,2013-06-23 21:17:00,
2013-06-23 17:32:00,87.2,75.0,30.07,ENE,69,5.0,-999.0,66,-99.99,,,0.00,487,weatherlink.com 1.10,2013-06-23 21:32:00,
2013-06-23 17:47:00,86.6,75.0,30.06,ENE,58,5.0,-999.0,68,-99.99,,,0.00,415,weatherlink.com 1.10,2013-06-23 21:47:00,
2013-06-23 18:02:00,87.0,75.0,30.07,East,93,4.0,-999.0,68,-99.99,,,0.00,343,weatherlink.com 1.10,2013-06-23 22:02:00,
2013-06-23 18:17:00,86.0,75.0,30.06,ESE,105,2.0,-999.0,69,-99.99,,,0.00,311,weatherlink.com 1.10,2013-06-23 22:17:00,
2013-06-23 18:32:00,85.5,75.0,30.06,ENE,69,5.0,-999.0,71,-99.99,,,0.00,257,weatherlink.com 1.10,2013-06-23 22:32:00,
2013-06-23 18:47:00,84.9,75.0,30.07,East,98,7.0,-999.0,72,-99.99,,,0.00,47,weatherlink.com 1.10,2013-06-23 22:47:00,
2013-06-23 19:02:00,84.2,75.0,30.07,NE,36,2.0,-999.0,73,-99.99,,,0.00,32,weatherlink.com 1.10,2013-06-23 23:02:00,
2013-06-23 19:17:00,83.7,75.0,30.07,ENE,76,3.0,-999.0,74,-99.99,,,0.00,25,weatherlink.com 1.10,2013-06-23 23:17:00,
2013-06-23 19:32:00,83.4,74.0,30.07,East,80,4.0,-999.0,73,-99.99,,,0.00,21,weatherlink.com 1.10,2013-06-23 23:32:00,
2013-06-23 19:47:00,83.2,74.0,30.07,East,87,4.0,-999.0,73,-99.99,,,0.00,14,weatherlink.com 1.10,2013-06-23 23:47:00,
2013-06-23 20:02:00,83.2,75.0,30.08,East,101,9.0,-999.0,75,-99.99,,,0.00,7,weatherlink.com 1.10,2013-06-24 00:02:00,
2013-06-23 20:17:00,83.1,75.0,30.08,East,90,0.0,-999.0,76,-99.99,,,0.00,0,weatherlink.com 1.10,2013-06-24 00:17:00,
2013-06-23 20:32:00,82.8,74.0,30.08,ESE,107,1.0,-999.0,75,-99.99,,,0.00,0,weatherlink.com 1.10,2013-06-24 00:32:00,
2013-06-23 20:47:00,82.8,74.0,30.08,East,93,5.0,-999.0,74,-99.99,,,0.00,0,weatherlink.com 1.10,2013-06-24 00:47:00,
2013-06-23 21:02:00,82.8,73.0,30.09,ENE,72,2.0,-999.0,73,-99.99,,,0.00,0,weatherlink.com 1.10,2013-06-24 01:02:00,
2013-06-23 21:17:00,82.9,75.0,30.09,ESE,104,2.0,-999.0,76,-99.99,,,0.00,0,weatherlink.com 1.10,2013-06-24 01:17:00,
2013-06-23 21:32:00,82.8,75.0,30.09,East,86,4.0,-999.0,77,-99.99,,,0.00,0,weatherlink.com 1.10,2013-06-24 01:32:00,
2013-06-23 21:47:00,82.7,75.0,30.10,East,92,2.0,-999.0,77,-99.99,,,0.00,0,weatherlink.com 1.10,2013-06-24 01:47:00,
2013-06-23 22:02:00,82.5,75.0,30.10,East,83,1.0,-999.0,78,-99.99,,,0.00,0,weatherlink.com 1.10,2013-06-24 02:02:00,
2013-06-23 22:17:00,82.5,74.0,30.10,East,90,4.0,-999.0,76,-99.99,,,0.00,0,weatherlink.com 1.10,2013-06-24 02:17:00,
2013-06-23 22:32:00,82.6,76.0,30.10,ENE,69,2.0,-999.0,79,-99.99,,,0.00,0,weatherlink.com 1.10,2013-06-24 02:32:00,
2013-06-23 22:47:00,82.2,75.0,30.11,ENE,74,3.0,-999.0,79,-99.99,,,0.00,0,weatherlink.com 1.10,2013-06-24 02:47:00,
2013-06-23 23:02:00,82.1,74.0,30.11,East,80,7.0,-999.0,77,-99.99,,,0.00,0,weatherlink.com 1.10,2013-06-24 03:02:00,
2013-06-23 23:17:00,82.2,74.0,30.11,ENE,67,3.0,-999.0,77,-99.99,,,0.00,0,weatherlink.com 1.10,2013-06-24 03:17:00,
2013-06-23 23:32:00,82.2,75.0,30.12,East,88,2.0,-999.0,78,-99.99,,,0.00,0,weatherlink.com 1.10,2013-06-24 03:32:00,
2013-06-23 23:47:00,81.9,75.0,30.12,ESE,115,4.0,-999.0,79,-99.99,,,0.00,0,weatherlink.com 1.10,2013-06-24 03:47:00,